Time;durP1;ratioP1;P1;durP2;ratioP2;P2;SDS_P1;SDS_P2;PMS_P1;PMS_P2;Temp;Humidity;BMP_temperature;BMP_pressure;BME280_temperature;BME280_humidity;BME280_pressure;Samples;Min_cycle;Max_cycle;Signal;HPM_P1;HPM_P2
2023/05/08 00:01:15;;;;;;;;;;;;;;;18.54;35.77;99087.50;4980348;28;19980;-86
2023/05/08 00:03:41;;;;;;;;;;;;;;;17.64;37.44;99094.53;4993204;28;19957;-86
2023/05/08 00:06:07;;;;;;;;;;;;;;;18.92;33.88;99086.50;4996779;28;20461;-85
2023/05/08 00:08:33;;;;;;;;;;;;;;;19.07;33.96;99082.72;4991938;28;19945;-86
2023/05/08 00:10:59;;;;;;;;;;;;;;;18.95;34.95;99080.97;5011195;28;19922;-86
2023/05/08 00:13:25;;;;;;;;;;;;;;;17.23;38.99;99087.72;4998163;28;19953;-86
2023/05/08 00:15:51;;;;;;;;;;;;;;;18.04;36.01;99096.91;4987827;28;20364;-86
2023/05/08 00:18:17;;;;;;;;;;;;;;;18.39;34.89;99100.31;4989966;28;19922;-86
2023/05/08 00:20:43;;;;;;;;;;;;;;;17.49;37.58;99097.38;4975336;28;19925;-86
2023/05/08 00:23:09;;;;;;;;;;;;;;;18.23;35.81;99094.06;4992315;28;20267;-86
2023/05/08 00:25:35;;;;;;;;;;;;;;;16.74;39.72;99102.41;4981937;28;19972;-86
2023/05/08 00:28:01;;;;;;;;;;;;;;;17.84;36.95;99092.56;4968299;28;20008;-86
2023/05/08 00:30:27;;;;;;;;;;;;;;;15.96;40.84;99094.09;4983351;28;20002;-86
2023/05/08 00:32:53;;;;;;;;;;;;;;;15.54;42.57;99094.50;4980165;28;19921;-86
2023/05/08 00:35:20;;;;;;;;;;;;;;;16.72;38.10;99097.25;4991285;28;19922;-87
2023/05/08 00:37:46;;;;;;;;;;;;;;;16.53;39.17;99091.63;4989946;28;19913;-86
2023/05/08 00:40:12;;;;;;;;;;;;;;;16.54;40.16;99098.78;4992536;28;20298;-86
2023/05/08 00:42:38;;;;;;;;;;;;;;;16.17;40.28;99101.00;4993239;28;20794;-87
2023/05/08 00:45:04;;;;;;;;;;;;;;;16.37;40.37;99101.88;4991925;28;19921;-86
2023/05/08 00:47:31;;;;;;;;;;;;;;;15.89;40.61;99103.00;4989833;28;19918;-87
2023/05/08 00:50:01;;;;;;;;;;;;;;;17.54;36.82;99102.66;4995442;28;19929;-86
2023/05/08 00:52:28;;;;;;;;;;;;;;;16.93;36.90;99108.03;4996036;28;20278;-87
2023/05/08 00:54:54;;;;;;;;;;;;;;;16.74;37.70;99107.97;4990479;28;20360;-86
2023/05/08 00:57:21;;;;;;;;;;;;;;;14.90;42.54;99122.22;4988469;28;19926;-87
2023/05/08 00:59:48;;;;;;;;;;;;;;;15.65;39.90;99116.97;4988867;28;20048;-87
2023/05/08 01:02:15;;;;;;;;;;;;;;;15.59;41.03;99119.16;4990109;28;20353;-87
2023/05/08 01:04:43;;;;;;;;;;;;;;;15.92;40.54;99112.59;4996016;28;19922;-87
2023/05/08 01:07:09;;;;;;;;;;;;;;;15.08;42.79;99123.56;4986588;28;19926;-87
2023/05/08 01:09:35;;;;;;;;;;;;;;;15.10;40.98;99124.00;4993244;28;20377;-88
2023/05/08 01:12:13;;;;;;;;;;;;;;;15.79;38.79;99126.47;4990534;28;19922;-86
2023/05/08 01:14:53;;;;;;;;;;;;;;;16.46;37.02;99131.03;4990632;28;19972;-87
2023/05/08 01:17:38;;;;;;;;;;;;;;;17.28;35.81;99126.28;4990310;28;20120;-87
2023/05/08 01:20:04;;;;;;;;;;;;;;;17.23;37.44;99118.25;4992438;28;20179;-87
2023/05/08 01:22:42;;;;;;;;;;;;;;;18.93;32.67;99113.13;4989034;28;19922;-86
2023/05/08 01:25:27;;;;;;;;;;;;;;;17.08;38.02;99121.06;4982409;28;20009;-87
2023/05/08 01:28:20;;;;;;;;;;;;;;;16.89;37.00;99124.59;4986572;28;20277;-87
2023/05/08 01:31:05;;;;;;;;;;;;;;;17.60;34.85;99127.00;4994425;28;19979;-87
2023/05/08 01:33:46;;;;;;;;;;;;;;;17.71;34.58;99128.00;4987580;28;19918;-87
2023/05/08 01:36:32;;;;;;;;;;;;;;;17.46;35.04;99137.75;4987389;28;19926;-87
2023/05/08 01:38:58;;;;;;;;;;;;;;;17.65;35.21;99131.44;4987648;28;20028;-86
2023/05/08 01:41:26;;;;;;;;;;;;;;;17.16;36.02;99131.16;4972243;28;20013;-87
2023/05/08 01:44:05;;;;;;;;;;;;;;;17.72;34.53;99131.59;4986672;28;19921;-87
2023/05/08 01:46:31;;;;;;;;;;;;;;;18.10;34.17;99142.69;4987823;28;20290;-87
2023/05/08 01:49:09;;;;;;;;;;;;;;;17.55;35.99;99134.81;4987454;28;20084;-87
2023/05/08 01:51:46;;;;;;;;;;;;;;;16.07;39.01;99142.25;4987392;28;19965;-87
2023/05/08 01:54:18;;;;;;;;;;;;;;;15.85;37.69;99140.84;4983778;28;20016;-87
2023/05/08 01:56:46;;;;;;;;;;;;;;;15.68;39.16;99136.44;4989117;28;19929;-87
2023/05/08 01:59:15;;;;;;;;;;;;;;;15.00;41.33;99143.06;4989556;28;20437;-87
2023/05/08 02:01:43;;;;;;;;;;;;;;;17.08;37.06;99130.19;4976330;28;19921;-87
2023/05/08 02:04:10;;;;;;;;;;;;;;;18.10;33.46;99134.34;4992026;28;20000;-87
2023/05/08 02:06:37;;;;;;;;;;;;;;;18.77;32.49;99138.31;4992270;28;19921;-87
2023/05/08 02:09:06;;;;;;;;;;;;;;;17.97;33.77;99146.00;4995868;28;20432;-87
2023/05/08 02:11:36;;;;;;;;;;;;;;;20.13;30.38;99120.28;4996262;28;19929;-87
2023/05/08 02:14:03;;;;;;;;;;;;;;;19.11;33.42;99136.50;4996906;28;19922;-87
2023/05/08 02:16:30;;;;;;;;;;;;;;;19.23;31.32;99131.47;5003924;28;19928;-87
2023/05/08 02:18:58;;;;;;;;;;;;;;;18.75;31.97;99139.88;4980592;28;19922;-87
2023/05/08 02:21:24;;;;;;;;;;;;;;;18.59;33.00;99126.94;4997951;28;19922;-87
2023/05/08 02:23:51;;;;;;;;;;;;;;;19.49;31.23;99135.44;4996640;28;19921;-87
2023/05/08 02:26:18;;;;;;;;;;;;;;;18.89;32.50;99142.88;4994054;28;19929;-87
2023/05/08 02:28:44;;;;;;;;;;;;;;;19.22;31.35;99135.47;4984521;28;19933;-87
2023/05/08 02:31:11;;;;;;;;;;;;;;;18.34;33.13;99141.53;5004641;28;19928;-87
2023/05/08 02:33:38;;;;;;;;;;;;;;;17.03;36.52;99140.78;4985723;28;20377;-87
2023/05/08 02:36:06;;;;;;;;;;;;;;;16.68;37.15;99145.47;4995011;28;19988;-87
2023/05/08 02:38:33;;;;;;;;;;;;;;;15.82;40.33;99144.34;4996192;28;19929;-88
2023/05/08 02:41:01;;;;;;;;;;;;;;;15.68;40.05;99136.44;4985491;28;20389;-87
2023/05/08 02:43:27;;;;;;;;;;;;;;;15.20;41.62;99142.09;4984455;28;19921;-87
2023/05/08 02:46:09;;;;;;;;;;;;;;;16.22;38.73;99147.81;4985928;28;20005;-87
2023/05/08 02:48:37;;;;;;;;;;;;;;;16.54;37.65;99148.69;4975792;28;20333;-87
2023/05/08 02:51:06;;;;;;;;;;;;;;;16.90;38.05;99144.81;4976485;28;19918;-87
2023/05/08 02:53:36;;;;;;;;;;;;;;;16.20;38.36;99150.13;4982151;28;19922;-87
2023/05/08 02:56:06;;;;;;;;;;;;;;;15.96;39.94;99144.75;4990249;28;19976;-87
2023/05/08 02:58:35;;;;;;;;;;;;;;;14.87;42.10;99149.72;4992934;28;20424;-88
2023/05/08 03:01:10;;;;;;;;;;;;;;;15.18;41.52;99153.50;4993097;28;19928;-88
2023/05/08 03:03:43;;;;;;;;;;;;;;;15.48;41.18;99153.22;4995964;28;19972;-88
2023/05/08 03:06:15;;;;;;;;;;;;;;;16.77;37.90;99141.34;4999029;28;19922;-87
2023/05/08 03:08:42;;;;;;;;;;;;;;;17.02;36.70;99139.97;4990111;28;20578;-87
2023/05/08 03:11:11;;;;;;;;;;;;;;;16.09;38.11;99137.97;4985955;28;20393;-87
2023/05/08 03:13:38;;;;;;;;;;;;;;;17.66;34.88;99145.00;4988550;28;19922;-87
2023/05/08 03:16:05;;;;;;;;;;;;;;;17.51;36.27;99145.84;4987468;28;19932;-87
2023/05/08 03:18:35;;;;;;;;;;;;;;;17.10;37.81;99140.94;4991833;28;19973;-87
2023/05/08 03:21:03;;;;;;;;;;;;;;;17.53;36.19;99140.72;4990449;28;19976;-87
2023/05/08 03:23:31;;;;;;;;;;;;;;;18.10;34.15;99145.47;4994767;28;19917;-87
2023/05/08 03:25:58;;;;;;;;;;;;;;;18.80;32.90;99145.13;4995988;28;19929;-87
2023/05/08 03:28:25;;;;;;;;;;;;;;;19.67;31.51;99144.84;4986600;28;19977;-87
2023/05/08 03:30:51;;;;;;;;;;;;;;;18.86;32.83;99150.00;4985940;28;19981;-87
2023/05/08 03:33:18;;;;;;;;;;;;;;;18.68;34.58;99159.22;4987643;28;19970;-88
2023/05/08 03:35:45;;;;;;;;;;;;;;;19.80;31.48;99147.00;5000142;28;19959;-88
2023/05/08 03:38:11;;;;;;;;;;;;;;;17.63;35.85;99150.44;4992038;28;20381;-87
2023/05/08 03:40:41;;;;;;;;;;;;;;;18.40;33.32;99156.72;4994654;28;19922;-88
2023/05/08 03:43:08;;;;;;;;;;;;;;;15.73;39.75;99149.22;4989543;28;20305;-89
2023/05/08 03:45:35;;;;;;;;;;;;;;;16.16;38.06;99151.22;4988418;28;20404;-87
2023/05/08 03:48:03;;;;;;;;;;;;;;;16.30;37.48;99151.59;4987773;28;19922;-87
2023/05/08 03:50:29;;;;;;;;;;;;;;;16.59;37.63;99159.53;4987294;28;19922;-87
2023/05/08 03:52:57;;;;;;;;;;;;;;;16.10;38.17;99152.63;4993356;28;20043;-88
2023/05/08 03:55:23;;;;;;;;;;;;;;;17.16;36.41;99156.94;4997503;28;19929;-87
2023/05/08 03:57:56;;;;;;;;;;;;;;;16.53;38.40;99158.97;4987972;28;19925;-87
2023/05/08 04:00:27;;;;;;;;;;;;;;;16.30;39.15;99165.44;4977920;28;20425;-87
2023/05/08 04:03:32;;;;;;;;;;;;;;;16.13;38.98;99169.34;4990734;28;19921;-87
2023/05/08 04:06:01;;;;;;;;;;;;;;;16.51;38.46;99174.34;4890856;29;20411;-88
2023/05/08 04:08:28;;;;;;;;;;;;;;;18.43;33.38;99170.72;4898523;29;19923;-87
2023/05/08 04:11:03;;;;;;;;;;;;;;;19.16;32.45;99180.72;4943261;28;19948;-87
2023/05/08 04:13:31;;;;;;;;;;;;;;;17.41;36.52;99178.91;4981154;28;19923;-89
2023/05/08 04:16:10;;;;;;;;;;;;;;;17.01;36.75;99179.16;4975536;28;20400;-88
2023/05/08 04:18:41;;;;;;;;;;;;;;;17.71;35.28;99172.44;4971090;28;20389;-88
2023/05/08 04:21:10;;;;;;;;;;;;;;;15.75;38.43;99180.94;4985675;28;19929;-91
2023/05/08 04:23:37;;;;;;;;;;;;;;;14.98;41.83;99190.38;4987467;28;19933;-90
2023/05/08 04:26:04;;;;;;;;;;;;;;;15.13;40.73;99180.59;4983096;28;19977;-90
2023/05/08 04:28:30;;;;;;;;;;;;;;;15.81;38.73;99184.25;4993004;28;19933;-90
2023/05/08 04:30:57;;;;;;;;;;;;;;;15.49;39.10;99202.72;4985657;28;19922;-90
2023/05/08 04:33:23;;;;;;;;;;;;;;;15.79;39.38;99198.47;4983373;28;19961;-89
2023/05/08 04:35:50;;;;;;;;;;;;;;;14.39;42.08;99206.59;4993522;28;20046;-87
2023/05/08 04:38:16;;;;;;;;;;;;;;;15.63;39.73;99205.91;4992933;28;19929;-88
2023/05/08 04:40:42;;;;;;;;;;;;;;;16.19;38.45;99209.50;4989418;28;19926;-88
2023/05/08 04:43:08;;;;;;;;;;;;;;;16.00;39.56;99216.84;4989356;28;19976;-89
2023/05/08 04:45:34;;;;;;;;;;;;;;;15.74;40.03;99215.31;4992797;28;20303;-90
2023/05/08 04:48:00;;;;;;;;;;;;;;;16.04;39.31;99217.75;4987833;28;20377;-88
2023/05/08 04:50:26;;;;;;;;;;;;;;;15.59;39.32;99221.56;4992020;28;19922;-86
2023/05/08 04:52:52;;;;;;;;;;;;;;;16.17;38.04;99224.88;4994349;28;19921;-88
2023/05/08 04:55:18;;;;;;;;;;;;;;;15.85;39.90;99221.16;4972571;28;20008;-89
2023/05/08 04:57:44;;;;;;;;;;;;;;;17.40;36.60;99227.25;4987631;28;20029;-89
2023/05/08 05:00:10;;;;;;;;;;;;;;;15.36;39.93;99227.94;4982392;28;19933;-88
2023/05/08 05:02:37;;;;;;;;;;;;;;;15.23;41.66;99235.44;4990322;28;19929;-89
2023/05/08 05:05:03;;;;;;;;;;;;;;;16.50;38.30;99231.72;4977147;28;19919;-88
2023/05/08 05:07:29;;;;;;;;;;;;;;;18.18;33.93;99229.78;4976259;28;19929;-88
2023/05/08 05:09:55;;;;;;;;;;;;;;;16.62;38.73;99241.94;4989688;28;19922;-88
2023/05/08 05:12:21;;;;;;;;;;;;;;;17.11;37.68;99247.97;4996699;28;19964;-88
2023/05/08 05:14:47;;;;;;;;;;;;;;;16.67;37.41;99246.44;4977844;28;19918;-87
2023/05/08 05:17:13;;;;;;;;;;;;;;;17.10;36.94;99252.72;4978762;28;19922;-88
2023/05/08 05:19:39;;;;;;;;;;;;;;;18.18;33.46;99241.69;4981914;28;19973;-88
2023/05/08 05:22:07;;;;;;;;;;;;;;;17.16;37.57;99245.72;4997081;28;19976;-87
2023/05/08 05:24:34;;;;;;;;;;;;;;;17.44;33.66;99250.34;4996918;28;19918;-88
2023/05/08 05:27:01;;;;;;;;;;;;;;;16.50;37.36;99253.06;4991154;28;20017;-88
2023/05/08 05:29:27;;;;;;;;;;;;;;;16.65;38.45;99265.38;4988422;28;19929;-87
2023/05/08 05:31:53;;;;;;;;;;;;;;;17.76;34.47;99260.25;4977264;28;19918;-87
2023/05/08 05:34:19;;;;;;;;;;;;;;;18.87;33.97;99264.91;4976917;28;20045;-88
2023/05/08 05:36:45;;;;;;;;;;;;;;;17.31;36.76;99265.50;4977325;28;19933;-89
2023/05/08 05:39:11;;;;;;;;;;;;;;;16.45;38.93;99262.47;4975947;28;20382;-87
2023/05/08 05:41:37;;;;;;;;;;;;;;;17.07;38.01;99256.22;4977490;28;19973;-87
2023/05/08 05:44:03;;;;;;;;;;;;;;;18.51;33.55;99255.88;4977060;28;19953;-87
2023/05/08 05:46:31;;;;;;;;;;;;;;;17.76;36.51;99255.47;4992025;28;19960;-88
2023/05/08 05:48:57;;;;;;;;;;;;;;;17.49;37.06;99266.72;4977243;28;20271;-88
2023/05/08 05:51:23;;;;;;;;;;;;;;;17.25;37.25;99264.97;4976995;28;19972;-88
2023/05/08 05:53:49;;;;;;;;;;;;;;;16.56;36.07;99266.38;4977366;28;19925;-87
2023/05/08 05:56:15;;;;;;;;;;;;;;;16.24;39.79;99270.16;4990790;28;19942;-87
2023/05/08 05:58:44;;;;;;;;;;;;;;;15.88;39.00;99273.91;4976494;28;19930;-87
2023/05/08 06:01:10;;;;;;;;;;;;;;;17.03;37.40;99274.75;4976889;28;19982;-88
2023/05/08 06:03:36;;;;;;;;;;;;;;;16.40;39.66;99276.59;4991916;28;20393;-87
2023/05/08 06:06:02;;;;;;;;;;;;;;;16.87;36.60;99282.25;4976789;28;19918;-87
2023/05/08 06:08:28;;;;;;;;;;;;;;;18.23;33.35;99282.28;5007644;28;19984;-87
2023/05/08 06:10:54;;;;;;;;;;;;;;;19.32;31.94;99278.81;4997307;28;19921;-88
2023/05/08 06:13:21;;;;;;;;;;;;;;;18.58;32.16;99274.69;5015630;28;20301;-89
2023/05/08 06:15:47;;;;;;;;;;;;;;;18.34;35.67;99286.09;4997840;28;19988;-88
2023/05/08 06:18:13;;;;;;;;;;;;;;;18.03;35.65;99287.03;4974987;28;19922;-88
2023/05/08 06:20:39;;;;;;;;;;;;;;;18.25;33.79;99291.09;4971355;28;20385;-89
2023/05/08 06:23:05;;;;;;;;;;;;;;;18.49;35.92;99286.03;4996671;28;20008;-87
2023/05/08 06:25:31;;;;;;;;;;;;;;;18.51;32.28;99286.47;4993381;28;19948;-88
2023/05/08 06:27:57;;;;;;;;;;;;;;;18.42;36.01;99293.41;4985533;28;20386;-87
2023/05/08 06:30:23;;;;;;;;;;;;;;;17.95;35.74;99307.50;4976368;28;20005;-88
2023/05/08 06:32:49;;;;;;;;;;;;;;;18.36;33.53;99300.44;4976178;28;20412;-88
2023/05/08 06:35:19;;;;;;;;;;;;;;;17.01;39.22;99299.25;4986201;28;19925;-89
2023/05/08 06:37:45;;;;;;;;;;;;;;;16.38;41.14;99303.06;4992783;28;19918;-88
2023/05/08 06:40:12;;;;;;;;;;;;;;;15.71;41.78;99306.56;4975277;28;19957;-88
2023/05/08 06:42:38;;;;;;;;;;;;;;;16.23;41.35;99312.09;4976087;28;19964;-88
2023/05/08 06:45:05;;;;;;;;;;;;;;;18.03;38.70;99311.25;4975140;28;19918;-88
2023/05/08 06:47:31;;;;;;;;;;;;;;;17.66;37.95;99306.06;4975982;28;19918;-88
2023/05/08 06:49:57;;;;;;;;;;;;;;;16.91;39.48;99302.56;4976634;28;19924;-88
2023/05/08 06:52:24;;;;;;;;;;;;;;;16.29;40.55;99299.63;4995481;28;20013;-88
2023/05/08 06:54:50;;;;;;;;;;;;;;;17.20;36.68;99302.13;4991409;28;20260;-87
2023/05/08 06:57:16;;;;;;;;;;;;;;;17.32;40.53;99303.22;4981002;28;19933;-87
2023/05/08 06:59:42;;;;;;;;;;;;;;;16.56;41.04;99315.47;4975891;28;19969;-88
2023/05/08 07:02:09;;;;;;;;;;;;;;;17.68;36.83;99314.84;4975765;28;19926;-88
2023/05/08 07:04:35;;;;;;;;;;;;;;;18.87;37.10;99313.00;4975974;28;19976;-89
2023/05/08 07:07:01;;;;;;;;;;;;;;;19.18;34.84;99314.75;4995209;28;19960;-88
2023/05/08 07:09:27;;;;;;;;;;;;;;;17.18;40.80;99318.31;5001946;28;20258;-87
2023/05/08 07:11:53;;;;;;;;;;;;;;;18.71;34.27;99317.06;4990462;28;19969;-88
2023/05/08 07:14:19;;;;;;;;;;;;;;;20.30;32.34;99312.16;4975445;28;19915;-88
2023/05/08 07:16:45;;;;;;;;;;;;;;;19.66;36.15;99319.56;4974359;28;20413;-88
2023/05/08 07:19:11;;;;;;;;;;;;;;;18.90;38.25;99317.03;4985430;28;19925;-88
2023/05/08 07:21:38;;;;;;;;;;;;;;;20.89;31.39;99317.63;5014401;28;19913;-88
2023/05/08 07:24:05;;;;;;;;;;;;;;;21.21;28.97;99315.97;5014686;28;19917;-88
2023/05/08 07:26:31;;;;;;;;;;;;;;;20.53;34.84;99321.22;5012448;28;20297;-88
2023/05/08 07:28:57;;;;;;;;;;;;;;;20.41;36.00;99327.84;4989901;28;19926;-88
2023/05/08 07:31:23;;;;;;;;;;;;;;;21.30;33.55;99324.88;4975486;28;19918;-89
2023/05/08 07:33:49;;;;;;;;;;;;;;;20.64;31.83;99328.53;4975528;28;19923;-89
2023/05/08 07:36:15;;;;;;;;;;;;;;;18.57;38.62;99332.31;4975169;28;19922;-87
2023/05/08 07:38:41;;;;;;;;;;;;;;;18.22;39.02;99327.94;4975321;28;19918;-88
2023/05/08 07:41:08;;;;;;;;;;;;;;;21.02;31.12;99320.97;4975185;28;20017;-88
2023/05/08 07:43:34;;;;;;;;;;;;;;;21.83;30.54;99324.47;4975344;28;19949;-88
2023/05/08 07:46:00;;;;;;;;;;;;;;;20.94;34.61;99331.25;4979716;28;19973;-88
2023/05/08 07:48:26;;;;;;;;;;;;;;;19.81;30.87;99331.75;4975505;28;19972;-88
2023/05/08 07:50:52;;;;;;;;;;;;;;;19.68;36.08;99333.13;4975344;28;19925;-89
2023/05/08 07:53:18;;;;;;;;;;;;;;;19.56;31.58;99328.56;4974715;28;19918;-88
2023/05/08 07:55:44;;;;;;;;;;;;;;;21.14;31.77;99320.72;4974886;28;19929;-88
2023/05/08 07:58:10;;;;;;;;;;;;;;;20.15;33.16;99339.00;4974868;28;20282;-89
2023/05/08 08:00:36;;;;;;;;;;;;;;;19.77;35.07;99326.09;4994248;28;19928;-88
2023/05/08 08:03:03;;;;;;;;;;;;;;;19.08;39.16;99340.41;4991266;28;20330;-89
2023/05/08 08:05:29;;;;;;;;;;;;;;;19.23;37.11;99336.69;4994186;28;19961;-89
2023/05/08 08:07:55;;;;;;;;;;;;;;;18.56;38.36;99341.81;4993715;28;19925;-89
2023/05/08 08:10:21;;;;;;;;;;;;;;;18.96;37.50;99337.81;4994341;28;19988;-88
2023/05/08 08:12:47;;;;;;;;;;;;;;;20.81;29.83;99331.91;4994158;28;19922;-88
2023/05/08 08:15:13;;;;;;;;;;;;;;;21.05;31.89;99325.81;4994259;28;19921;-88
2023/05/08 08:17:39;;;;;;;;;;;;;;;19.65;36.19;99336.66;4994256;28;19918;-90
2023/05/08 08:20:05;;;;;;;;;;;;;;;18.77;38.50;99340.63;4988395;28;19930;-88
2023/05/08 08:22:31;;;;;;;;;;;;;;;17.72;39.71;99345.44;4974540;28;19949;-87
2023/05/08 08:24:57;;;;;;;;;;;;;;;17.61;38.05;99347.19;4974204;28;20344;-88
2023/05/08 08:27:23;;;;;;;;;;;;;;;18.48;36.40;99347.59;4974605;28;20366;-88
2023/05/08 08:29:50;;;;;;;;;;;;;;;19.51;37.23;99328.84;4974408;28;20040;-88
2023/05/08 08:32:16;;;;;;;;;;;;;;;19.00;38.34;99336.69;4974580;28;19922;-88
2023/05/08 08:34:42;;;;;;;;;;;;;;;18.80;39.81;99332.34;4976808;28;19924;-88
2023/05/08 08:37:08;;;;;;;;;;;;;;;20.27;33.61;99333.22;4987463;28;19923;-88
2023/05/08 08:39:34;;;;;;;;;;;;;;;19.36;37.93;99324.25;4974668;28;19922;-88
2023/05/08 08:42:00;;;;;;;;;;;;;;;20.69;33.20;99330.16;4974493;28;20008;-89
2023/05/08 08:44:26;;;;;;;;;;;;;;;21.07;31.64;99332.63;4974669;28;20389;-87
2023/05/08 08:46:52;;;;;;;;;;;;;;;21.61;29.46;99329.09;4974422;28;19925;-89
2023/05/08 08:49:23;;;;;;;;;;;;;;;21.35;29.90;99327.28;4973125;28;19925;-87
2023/05/08 08:51:53;;;;;;;;;;;;;;;21.52;28.91;99325.03;4977126;28;19917;-88
2023/05/08 08:54:27;;;;;;;;;;;;;;;22.00;29.68;99330.22;4982656;28;19926;-88
2023/05/08 08:56:54;;;;;;;;;;;;;;;22.62;27.55;99335.75;4974458;28;19973;-88
2023/05/08 08:59:22;;;;;;;;;;;;;;;21.17;31.05;99326.31;4987132;28;19988;-88
2023/05/08 09:04:52;;;;;;;;;;;;;;;20.52;34.90;99350.28;5003858;28;20396;-88
2023/05/08 09:07:18;;;;;;;;;;;;;;;20.25;34.83;99346.75;5013219;28;19968;-89
2023/05/08 09:09:44;;;;;;;;;;;;;;;19.12;39.43;99344.88;5006456;28;20016;-89
2023/05/08 09:12:11;;;;;;;;;;;;;;;19.38;39.70;99355.31;4982729;28;19969;-88
2023/05/08 09:14:37;;;;;;;;;;;;;;;20.19;30.65;99350.19;4977771;28;20425;-88
2023/05/08 09:17:03;;;;;;;;;;;;;;;20.09;35.38;99348.06;4999181;28;19921;-89
2023/05/08 09:19:29;;;;;;;;;;;;;;;19.79;33.71;99348.81;5016664;28;19918;-88
2023/05/08 09:21:57;;;;;;;;;;;;;;;20.90;29.98;99349.13;5016511;28;19956;-88
2023/05/08 09:24:23;;;;;;;;;;;;;;;19.93;33.12;99354.59;4984524;28;19922;-89
2023/05/08 09:26:49;;;;;;;;;;;;;;;19.70;35.87;99358.63;4997165;28;20286;-89
2023/05/08 09:29:21;;;;;;;;;;;;;;;19.36;34.74;99354.06;4981481;28;19965;-89
2023/05/08 09:31:49;;;;;;;;;;;;;;;19.72;37.75;99354.28;5012935;28;20137;-89
2023/05/08 09:34:29;;;;;;;;;;;;;;;19.62;37.08;99354.94;5014783;28;19980;-89
2023/05/08 09:36:55;;;;;;;;;;;;;;;20.68;35.25;99343.31;4996454;28;20016;-90
2023/05/08 09:39:24;;;;;;;;;;;;;;;19.58;36.86;99356.06;4996709;28;19976;-90
2023/05/08 09:41:57;;;;;;;;;;;;;;;20.08;30.33;99355.63;4996976;28;19918;-88
2023/05/08 09:44:23;;;;;;;;;;;;;;;21.28;32.96;99343.97;4996069;28;20329;-90
2023/05/08 09:46:49;;;;;;;;;;;;;;;21.95;33.60;99346.56;4959817;28;19918;-88
2023/05/08 09:49:16;;;;;;;;;;;;;;;22.94;28.05;99341.47;4977099;28;19976;-90
2023/05/08 09:51:54;;;;;;;;;;;;;;;21.88;34.41;99360.50;4978691;28;19925;-88
2023/05/08 09:54:21;;;;;;;;;;;;;;;20.93;34.61;99360.34;4993853;28;19913;-88
2023/05/08 09:56:47;;;;;;;;;;;;;;;21.59;31.41;99356.63;4996648;28;19952;-89
2023/05/08 09:59:26;;;;;;;;;;;;;;;19.97;36.16;99363.84;4996336;28;19948;-87
2023/05/08 10:01:53;;;;;;;;;;;;;;;19.83;36.17;99363.63;4992452;28;20001;-88
2023/05/08 10:04:32;;;;;;;;;;;;;;;20.70;31.52;99356.09;5001230;28;19913;-87
2023/05/08 10:06:58;;;;;;;;;;;;;;;20.16;32.49;99367.69;5015966;28;19963;-88
2023/05/08 10:09:24;;;;;;;;;;;;;;;20.56;32.86;99359.50;5015583;28;19925;-88
2023/05/08 10:11:51;;;;;;;;;;;;;;;20.19;34.88;99364.94;5015982;28;19971;-90
2023/05/08 10:14:17;;;;;;;;;;;;;;;20.96;30.44;99356.78;4998547;28;20010;-87
2023/05/08 10:16:44;;;;;;;;;;;;;;;18.61;37.12;99363.78;4996191;28;20008;-88
2023/05/08 10:19:11;;;;;;;;;;;;;;;18.47;39.36;99362.66;4989208;28;19925;-88
2023/05/08 10:21:39;;;;;;;;;;;;;;;20.21;31.77;99362.59;4976479;28;20321;-87
2023/05/08 10:24:10;;;;;;;;;;;;;;;19.14;36.35;99358.41;4983456;28;19926;-88
2023/05/08 10:26:37;;;;;;;;;;;;;;;19.04;32.97;99362.59;4976279;28;19925;-88
2023/05/08 10:29:05;;;;;;;;;;;;;;;19.77;36.01;99358.72;4977898;28;19926;-87
2023/05/08 10:31:33;;;;;;;;;;;;;;;20.19;33.33;99352.97;4995779;28;19945;-87
2023/05/08 10:34:00;;;;;;;;;;;;;;;21.00;32.22;99349.28;4995723;28;20334;-87
2023/05/08 10:36:27;;;;;;;;;;;;;;;22.56;29.50;99354.91;4987266;28;19925;-88
2023/05/08 10:38:53;;;;;;;;;;;;;;;20.93;31.21;99351.97;4976388;28;20021;-88
2023/05/08 10:41:20;;;;;;;;;;;;;;;21.10;35.80;99344.97;4976228;28;19965;-88
2023/05/08 10:43:47;;;;;;;;;;;;;;;22.28;29.30;99342.75;4976288;28;19977;-87
2023/05/08 10:46:28;;;;;;;;;;;;;;;22.72;29.09;99340.59;4990950;28;19922;-88
2023/05/08 10:49:17;;;;;;;;;;;;;;;21.56;35.87;99337.06;4995265;28;19925;-87
2023/05/08 10:51:53;;;;;;;;;;;;;;;20.49;35.78;99349.03;4964914;28;19918;-88
2023/05/08 10:54:25;;;;;;;;;;;;;;;22.20;35.86;99339.13;4976653;28;19972;-87
2023/05/08 10:56:51;;;;;;;;;;;;;;;23.16;31.23;99321.50;4975648;28;20354;-87
2023/05/08 10:59:21;;;;;;;;;;;;;;;22.31;35.20;99325.19;4974551;28;19925;-89
2023/05/08 11:01:48;;;;;;;;;;;;;;;21.46;32.11;99329.38;4990067;28;19922;-87
2023/05/08 11:04:21;;;;;;;;;;;;;;;21.20;37.09;99327.53;4995019;28;19921;-88
2023/05/08 11:06:51;;;;;;;;;;;;;;;20.51;35.36;99338.31;4977638;28;19922;-87
2023/05/08 11:09:21;;;;;;;;;;;;;;;20.32;37.70;99337.69;4994946;28;19918;-88
2023/05/08 11:11:51;;;;;;;;;;;;;;;20.14;33.30;99342.97;4994526;28;19917;-88
2023/05/08 11:14:18;;;;;;;;;;;;;;;19.81;37.99;99340.09;4995037;28;20299;-88
2023/05/08 11:16:53;;;;;;;;;;;;;;;20.68;31.63;99342.50;4994867;28;19925;-88
2023/05/08 11:19:23;;;;;;;;;;;;;;;22.49;28.89;99326.88;4995031;28;19925;-87
2023/05/08 11:22:10;;;;;;;;;;;;;;;21.70;31.01;99328.78;4991754;28;19921;-88
2023/05/08 11:24:37;;;;;;;;;;;;;;;21.84;30.55;99329.69;4994414;28;20013;-88
2023/05/08 11:27:03;;;;;;;;;;;;;;;23.25;28.54;99324.72;4982573;28;20013;-88
2023/05/08 11:29:29;;;;;;;;;;;;;;;22.34;33.15;99336.41;4974996;28;20425;-87
2023/05/08 11:31:55;;;;;;;;;;;;;;;20.59;37.63;99328.84;4974668;28;19922;-87
2023/05/08 11:34:40;;;;;;;;;;;;;;;21.51;32.94;99323.44;4975438;28;19922;-88
2023/05/08 11:37:09;;;;;;;;;;;;;;;20.82;37.89;99328.72;4983537;28;19922;-87
2023/05/08 11:39:35;;;;;;;;;;;;;;;22.37;30.08;99320.81;4994613;28;19968;-88
2023/05/08 11:42:34;;;;;;;;;;;;;;;21.50;34.77;99324.59;4994538;28;20389;-87
2023/05/08 11:45:11;;;;;;;;;;;;;;;20.66;37.87;99325.34;4967692;28;19925;-87
2023/05/08 11:47:40;;;;;;;;;;;;;;;22.75;29.91;99325.00;4994356;28;19988;-87
2023/05/08 11:50:10;;;;;;;;;;;;;;;23.34;27.30;99327.13;4989269;28;19929;-87
2023/05/08 11:52:37;;;;;;;;;;;;;;;21.69;32.14;99324.38;4975063;28;19961;-87
2023/05/08 11:55:07;;;;;;;;;;;;;;;23.39;28.68;99323.94;4977244;28;19965;-86
2023/05/08 11:57:33;;;;;;;;;;;;;;;25.00;26.93;99309.94;4992094;28;19922;-92
2023/05/08 12:00:05;;;;;;;;;;;;;;;25.03;26.07;99312.72;4992831;28;19929;-91
2023/05/08 12:02:49;;;;;;;;;;;;;;;24.50;32.04;99317.78;4986825;28;19922;-89
2023/05/08 12:05:24;;;;;;;;;;;;;;;24.03;25.96;99305.88;4993126;28;19932;-88
2023/05/08 12:07:50;;;;;;;;;;;;;;;22.48;34.92;99314.06;4989085;28;19929;-90
2023/05/08 12:10:16;;;;;;;;;;;;;;;23.73;27.18;99324.34;4981972;28;19922;-89
2023/05/08 12:12:43;;;;;;;;;;;;;;;24.10;30.12;99309.91;4993967;28;19941;-88
2023/05/08 12:15:10;;;;;;;;;;;;;;;23.09;32.48;99315.88;4994271;28;20329;-89
2023/05/08 12:17:36;;;;;;;;;;;;;;;22.48;28.07;99307.66;4991973;28;20056;-88
2023/05/08 12:20:32;;;;;;;;;;;;;;;23.20;31.50;99321.50;4993729;28;20016;-88
2023/05/08 12:23:01;;;;;;;;;;;;;;;23.88;27.16;99321.13;4980398;28;20385;-88
2023/05/08 12:25:27;;;;;;;;;;;;;;;23.50;30.83;99315.56;4990213;28;19922;-88
2023/05/08 12:27:53;;;;;;;;;;;;;;;23.46;32.21;99309.94;5004255;28;19961;-88
2023/05/08 12:30:19;;;;;;;;;;;;;;;22.42;31.48;99306.47;4994196;28;20007;-88
2023/05/08 12:32:45;;;;;;;;;;;;;;;22.74;32.30;99310.19;4993050;28;19925;-88
2023/05/08 12:35:12;;;;;;;;;;;;;;;24.61;31.48;99298.88;4987434;28;19929;-89
2023/05/08 12:37:38;;;;;;;;;;;;;;;22.88;35.47;99307.44;4995308;28;19918;-88
2023/05/08 12:40:04;;;;;;;;;;;;;;;21.98;38.10;99310.22;5009872;28;19948;-89
2023/05/08 12:42:43;;;;;;;;;;;;;;;20.86;35.47;99298.88;5013678;28;19918;-91
2023/05/08 12:45:16;;;;;;;;;;;;;;;22.17;29.86;99305.53;4999694;28;20431;-89
2023/05/08 12:47:46;;;;;;;;;;;;;;;23.91;27.22;99299.88;5017756;28;20340;-87
2023/05/08 12:50:13;;;;;;;;;;;;;;;21.58;35.78;99301.94;5001478;28;19918;-87
2023/05/08 12:52:39;;;;;;;;;;;;;;;22.19;28.83;99303.16;4987123;28;19918;-86
2023/05/08 12:55:18;;;;;;;;;;;;;;;21.92;31.80;99310.97;4987430;28;20012;-89
2023/05/08 12:57:44;;;;;;;;;;;;;;;21.12;33.95;99309.13;4991628;28;19922;-87